Tiempo atmosférico en la estación meteorológica de La Molina, Girona (1704 m.)



Fecha
DESCASC
Temp. máxima en grados centígrados (hora)
DESCASC
Temp. mínima en grados centígrados (hora)
DESCASC
Temp. media en grados centígrados
DESCASC
Racha de viento máxima en m/sg (hora)
DESCASC
Velocidad máxima media en intervalos de 10 minutos(hora)
DESCASC
Precipitaciones diarias en mm
DESCASC
Precipitaciones de 00:00 a 06:00 en mm
DESCASC
Precipitaciones de 06:00 a 12:00 en mm
DESCASC
Precipitaciones de 12:00 a 18:00 en mm
DESCASC
Precipitaciones de 18:00 a 24:00 en mm
DESCASC
22-04-2019 7.9 (15:30) 1.6 (00:20) 4.8 7.78 (09:40) 4.17 (09:50) 1.2 0 1.2 0 0
21-04-2019 6.4 (16:30) 0.2 (03:00) 3.3 8.33 (14:20) 4.72 (14:20) 7.4 6.6 0.8 0 0
20-04-2019 11.3 (12:00) 0.6 (23:59) 6 12.22 (02:10) 7.78 (02:00) 5.8 0 0 0 5.8
19-04-2019 12.1 (17:40) 4.9 (04:00) 8.5 12.5 (06:20) 7.5 (03:50) 0 0 0 0 0
18-04-2019 11.5 (13:20) 5.6 (00:00) 8.5 12.22 (23:40) 6.67 (23:59) 0 0 0 0 0
17-04-2019 15.6 (17:20) 1.6 (00:00) 8.6 7.5 (14:10) 4.17 (14:10) 0 0 0 0 0
16-04-2019 9 (18:00) 2.9 (00:00) 6 9.44 (01:30) 5.28 (18:20) 6.8 6.8 0 0 0
15-04-2019 15.4 (12:50) 4 (00:00) 9.7 9.72 (17:10) 5.28 (17:10) 0 0 0 0 0
14-04-2019 11.9 (19:20) 0.8 (00:00) 6.3 7.78 (22:40) 3.61 (22:40) 0 0 0 0 0
13-04-2019 11.4 (16:50) -2.8 (-00:0) 4.3 9.72 (15:00) 4.44 (17:40) 0 0 0 0 0
12-04-2019 8.8 (17:10) -1.5 (-00:0) 3.7 9.72 (03:10) 4.72 (18:30) 0.2 0.2 0 0 0
11-04-2019 5.5 (15:20) -1.9 (-00:0) 1.8 10 (16:00) 4.44 (13:50) 2.6 2.6 0 0 0
10-04-2019 5.3 (16:00) -2.7 (-00:0) 1.3 10 (15:40) 4.17 (15:40) 0.8 0 0 0.6 0.2
09-04-2019 6.2 (12:20) -2.2 (-00:0) 2 6.67 (03:30) 3.61 (16:40) 5.6 3.6 0.6 0.8 0.6
08-04-2019 8.4 (14:30) -1.3 (-00:0) 3.5 6.67 (19:30) 4.72 (19:00) 2 0 0 0 2
07-04-2019 5.4 (16:50) -4.8 (-00:0) 0.3 7.5 (14:00) 3.89 (14:00) 0 0 0 0 0
06-04-2019 4.3 (15:30) -2.7 (-00:0) 0.8 9.44 (14:50) 4.72 (02:40) 17.6 10 2.2 4.2 1.2
05-04-2019 3 (13:40) -4 (-00:0) -0.5 13.33 (21:50) 5 (22:00) 6.4 0 0 0 6.4
04-04-2019 4 (16:30) -7.8 (-00:0) -1.9 7.5 (17:20) 3.89 (17:20) 1.6 1 0.6 0 0
03-04-2019 3.2 (01:30) -2.6 (-00:0) 0.3 12.78 (13:40) 5.83 (15:40) 15.2 0.6 8 4.2 2.4
02-04-2019 7.2 (13:40) 0.2 (00:00) 3.7 9.17 (18:10) 5.28 (14:30) 5.8 0 0.2 5.4 0.2
01-04-2019 10.7 (13:50) 0.3 (00:00) 5.5 8.33 (14:20) 3.89 (16:10) 12.2 0 0 12 0.2
31-03-2019 9.6 (13:10) -1.8 (-00:0) 3.9 10.56 (16:50) 5.83 (19:50) 0 0 0 0 0
30-03-2019 9.3 (13:40) -2.4 (-00:0) 3.5 9.17 (13:40) 5.28 (18:50) 0 0 0 0 0
29-03-2019 6.3 (11:00) -1.3 (-00:0) 2.5 7.78 (12:10) 5 (05:40) 0 0 0 0 0
28-03-2019 11.3 (14:20) -2.6 (-00:0) 4.4 8.89 (19:00) 5 (19:00) 0 0 0 0 0
27-03-2019 10.8 (16:00) -3.1 (-00:0) 3.9 9.72 (16:50) 4.72 (14:10) 0 0 0 0 0
26-03-2019 7.1 (15:20) -2.7 (-00:0) 2.2 16.67 (11:00) 7.5 (13:20) 0 0 0 0 0
25-03-2019 12.7 (14:10) 0 (00:00) 6.3 10.28 (14:40) 5.28 (14:40) 0 0 0 0 0

Gráficas

Temp. máximas Temp. mínimas Temp. medias Precipitaciones Rachas de viento máximas Velocidades máximas media en intervalos de 10 minutos

Datos horarios

Fecha y hora oficial Temperatura (ºC) Velocidad del viento (km/h) Dirección del viento Racha (km/h) Dirección de racha Precipitación (mm) Presión (hPa) Tendencia (hPa) Humedad (%)
2019-04-23 23:00:00 4.7 8 Sudeste 31 Sudeste 0 815.3 1.3 88
2019-04-23 22:00:00 4.5 6 Este 40 Sudoeste 0 814.9 1.1 82
2019-04-23 21:00:00 5 8 Oeste 48 Este 0 814.4 0.4 80
2019-04-23 20:00:00 5.1 15 Este 40 Este 1.8 814 0.5 86
2019-04-23 19:00:00 6.9 18 Sur 39 Sudoeste 0 813.8 0.1 70
2019-04-23 18:00:00 5.6 14 Sudoeste 49 Sur 4 814 0.5 72
2019-04-23 17:00:00 7.6 7 Sur 32 Sur 0 813.5 0 74
2019-04-23 16:00:00 7.5 10 Sudoeste 29 Sudoeste 0.4 813.7 0 79
2019-04-23 15:00:00 8.7 4 Oeste 28 Oeste 0 813.5 0 72
2019-04-23 14:00:00 7.4 11 Este 27 Sudeste 0.4 813.5 0.3 85
2019-04-23 13:00:00 7.3 13 Sudeste 28 Sudeste 0 813.7 0.7 80
2019-04-23 12:00:00 9.7 11 Sudoeste 28 Sudoeste 0 813.5 0.5 68
2019-04-23 11:00:00 8.2 2 Norte 10 Noroeste 0 813.2 0.3 83
2019-04-23 10:00:00 6.8 2 Norte 10 Norte 0 813 0.1 85
2019-04-23 09:00:00 5.2 2 Norte 7 Norte 0 813 0 93
2019-04-23 08:00:00 4.2 3 Sudeste 7 Sur 0 812.9 -0.3 95
2019-04-23 07:00:00 4.3 3 Sudeste 8 Nordeste 0 812.9 -0.5 94
2019-04-23 06:00:00 3.9 6 Este 12 Este 0 813 -0.7 93
2019-04-23 05:00:00 3.9 4 Sur 6 Norte 0 813.2 -1.1 93
2019-04-23 04:00:00 3.7 3 Sudeste 7 Sudeste 0 813.4 -1.5 94
2019-04-23 03:00:00 3 4 Sudeste 10 Noroeste 0 813.7 -1.5 94
2019-04-23 02:00:00 3.6 3 Sudeste 7 Este 0 814.3 -0.8 93
2019-04-23 01:00:00 4.1 3 Norte 8 Sudeste 0 814.9 -0.2 90
2019-04-23 00:00:00 4.6 4 Sudeste 13 Sur 0 815.2 0 85
2019-04-22 23:00:00 4.1 2 Norte 12 Norte 0 815.1 0.1 91
2019-04-22 22:00:00 4.4 4 Sur 12 Este 0 815.1 0 88
2019-04-22 21:00:00 4.8 5 Sur 15 Sudeste 0 815.2 -0.3 86
2019-04-22 20:00:00 6.1 12 Sudeste 19 Sudeste 0 815 -0.8 79
2019-04-22 19:00:00 6.9 3 Norte 12 Norte 0 815.1 -1.1 79
2019-04-22 18:00:00 7.6 8 Noroeste 14 Sur 0 815.5 -1.3 76
2019-04-22 17:00:00 6.7 2 Sur 16 Sudeste 0 815.8 -1.4 77
2019-04-22 16:00:00 7.1 6 Sudeste 22 Este 0 816.2 -1.2 72
2019-04-22 15:00:00 7.3 5 Noroeste 13 Noroeste 0 816.8 -0.9 77
2019-04-22 14:00:00 5.9 8 Noroeste 16 Norte 0 817.2 -1 86
2019-04-22 13:00:00 6 4 Norte 14 Noroeste 0 817.4 -1.6 81
2019-04-22 12:00:00 6.5 4 Noroeste 12 Sudoeste 0 817.7 -0.8 83
2019-04-22 11:00:00 2.4 4 Oeste 22 Sudeste 1 818.2 -0.1 93
2019-04-22 10:00:00 3.1 13 Sudeste 28 Sur 0.2 819 0.8 81
2019-04-22 09:00:00 3.8 5 Sur 15 Sur 0 818.5 -0.2 72
2019-04-22 08:00:00 2.8 5 Sur 11 Sudoeste 0 818.3 -1.3 81
2019-04-22 07:00:00 3.4 6 Sudoeste 27 Sur 0 818.2 -2.2 77
2019-04-22 06:00:00 2 6 Sur 10 Sudeste 0 818.7 -2.4 84
2019-04-22 05:00:00 2.3 3 Sur 12 Sudeste 0 819.6 -2.2 84
2019-04-22 04:00:00 1.8 6 Sudeste 12 Nordeste 0 820.4 -2.1 85
2019-04-22 03:00:00 1.8 4 Sur 8 Sudeste 0 821.1 -2.2 86
2019-04-22 02:00:00 1.8 5 Este 10 Sudeste 0 821.8 -2.2 84
2019-04-22 01:00:00 1.6 4 Sudeste 9 Sudeste 0 822.5 -1.6 86
2019-04-22 00:00:00 2.2 2 Sudeste 12 Sur 0 823.3 -0.5 79
2019-04-21 23:00:00 2.2 5 Sudeste 13 Sur 0 824 0.1 78
2019-04-21 22:00:00 2.3 8 Sur 15 Sudoeste 0 824.1 -0.1 78
2019-04-21 21:00:00 2.2 5 Sudeste 10 Sudeste 0 823.8 -0.6 87
2019-04-21 20:00:00 4 2 Nordeste 13 Noroeste 0 823.9 -0.9 84
2019-04-21 19:00:00 5.7 5 Oeste 15 Noroeste 0 824.2 -1 80
2019-04-21 18:00:00 5.7 8 Noroeste 13 Oeste 0 824.4 -1.4 79
2019-04-21 17:00:00 6.3 3 Oeste 12 Norte 0 824.8 -1.4 71
2019-04-21 16:00:00 5.6 5 Sur 27 Sur 0 825.2 -1.2 66
2019-04-21 15:00:00 3.6 12 Sudeste 30 Sudeste 0 825.8 -0.6 80
2019-04-21 14:00:00 3 9 Sudeste 22 Este 0 826.2 -0.4 84
2019-04-21 13:00:00 3.3 6 Sur 17 Sudeste 0 826.4 -0.5 83
2019-04-21 12:00:00 4.6 5 Sudoeste 13 Sudeste 0 826.4 -0.8 76
2019-04-21 11:00:00 3.8 4 Sudoeste 8 Nordeste 0 826.6 -0.8 82
2019-04-21 10:00:00 2.2 5 Nordeste 21 Sudeste 0 826.9 -0.5 87
2019-04-21 09:00:00 1.6 9 Sur 22 Sudeste 0 827.2 -0.6 87
2019-04-21 08:00:00 0.8 3 Sudeste 7 Norte 0.2 827.4 -1 96
2019-04-21 07:00:00 0.6 3 Sur 17 Sudeste 0.6 827.4 -1.7 96
2019-04-21 06:00:00 0.5 4 Sudoeste 9 Sur 0.8 827.8 -2.3 97
2019-04-21 05:00:00 0.6 5 Sudoeste 12 Sudoeste 0 828.4 -2.4 96
2019-04-21 04:00:00 0.4 4 Sudoeste 9 Sudoeste 1.2 829.1 -2.3 97
2019-04-21 03:00:00 0.2 2 Este 11 Sur 1.6 830.1 -1.8 96
2019-04-21 02:00:00 1.3 3 Sudeste 21 Sudeste 1.4 830.8 -1.3 91
2019-04-21 01:00:00 0.7 5 Sudeste 13 Sudeste 1.6 831.4 -0.5 95
2019-04-21 00:00:00 0.6 4 Oeste 10 Sudoeste 4.8 831.9 0.3 94
2019-04-20 23:00:00 1.6 6 Sudeste 18 Sudeste 1 832.1 0.4 88
2019-04-20 22:00:00 4 5 Este 15 Sudeste 0 831.9 0.1 66
2019-04-20 21:00:00 4.7 3 Oeste 12 Sudeste 0 831.6 -0.3 54
2019-04-20 20:00:00 4.5 12 Sudeste 23 Sudeste 0 831.7 -0.6 68
2019-04-20 19:00:00 6.2 10 Sudeste 19 Este 0 831.8 -1.1 50
2019-04-20 18:00:00 7.1 11 Sudeste 18 Sudeste 0 831.9 -1.3 60
2019-04-20 17:00:00 7.1 12 Sudeste 19 Sudeste 0 832.3 -1.2 59
2019-04-20 16:00:00 8.1 8 Sudeste 26 Sudeste 0 832.9 -0.8 54
2019-04-20 15:00:00 8.2 12 Este 29 Sudeste 0 833.2 -0.9 55
2019-04-20 14:00:00 9.9 11 Sudeste 25 Sudeste 0 833.5 -0.5 48
2019-04-20 13:00:00 10.2 5 Sudeste 21 Sudeste 0 833.7 -0.3 39
2019-04-20 12:00:00 11.3 7 Este 26 Sudeste 0 834.1 -0.1 32
2019-04-20 11:00:00 9.7 6 Norte 22 Norte 0 834 -0.2 39
2019-04-20 10:00:00 8.6 3 Norte 11 Sudeste 0 834 -0.1 48
2019-04-20 09:00:00 6.6 5 Este 19 Nordeste 0 834.2 0.2 50
2019-04-20 08:00:00 5.8 6 Sudeste 34 Sudeste 0 834.2 -0.1 47
2019-04-20 07:00:00 5.8 5 Nordeste 41 Sudeste 0 834.1 -0.5 44
2019-04-20 06:00:00 7 22 Sudeste 41 Sudeste 0 834 -0.9 40
2019-04-20 05:00:00 7.2 24 Sudeste 40 Sudeste 0 834.3 -1.1 31
2019-04-20 04:00:00 7.6 21 Sudeste 40 Sudeste 0 834.6 -1.1 31
2019-04-20 03:00:00 8.1 18 Sudeste 44 Sudeste 0 834.9 -1 31
2019-04-20 02:00:00 7.8 28 Sudeste 41 Sudeste 0 835.4 -0.8 31
2019-04-20 01:00:00 8.3 17 Sudeste 36 Sudeste 0 835.7 -0.5 33
2019-04-20 00:00:00 7.7 8 Sudeste 20 Este 0 835.9 -0.2 34
2019-04-19 23:00:00 9 11 Este 37 Sudeste 0 836.2 0.4 31
2019-04-19 22:00:00 6.5 4 Este 19 Sudeste 0 836.2 0.8 53
2019-04-19 21:00:00 8 11 Sudeste 32 Sudeste 0 836.1 1 41
2019-04-19 20:00:00 8.1 21 Sudeste 36 Sudeste 0 835.8 0.9 41
2019-04-19 19:00:00 8.9 20 Sudeste 35 Este 0 835.4 0.3 44
2019-04-19 18:00:00 11.6 14 Este 27 Sudeste 0 835.1 -0.1 40
2019-04-19 17:00:00 11.3 14 Este 30 Sudeste 0 834.9 -0.3 41
2019-04-19 16:00:00 10.7 10 Este 28 Sudeste 0 835.1 -0.2 42
2019-04-19 15:00:00 10.5 17 Sudeste 27 Sudeste 0 835.2 0 44
2019-04-19 14:00:00 11.3 9 Sudeste 25 Este 0 835.2 0.3 39
2019-04-19 13:00:00 11.3 6 Sudeste 25 Sur 0 835.3 1.1 38
2019-04-19 12:00:00 9.8 8 Nordeste 31 Nordeste 0 835.2 1.4 40
2019-04-19 11:00:00 7.9 12 Este 35 Este 0 834.9 1.5 42
2019-04-19 10:00:00 6.9 16 Sudeste 37 Sudeste 0 834.2 1.1 47
2019-04-19 09:00:00 6.3 13 Sudeste 30 Sudeste 0 833.8 1.3 48
2019-04-19 08:00:00 5.8 7 Sudeste 21 Nordeste 0 833.4 0.8 49
2019-04-19 07:00:00 5.5 15 Sudeste 45 Sudeste 0 833.1 0.7 48
2019-04-19 06:00:00 5.8 22 Sudeste 43 Sudeste 0 832.5 0 48
2019-04-19 05:00:00 5.2 22 Sudeste 43 Sudeste 0 832.6 0.2 53
2019-04-19 04:00:00 5 23 Sudeste 43 Sudeste 0 832.4 0.2 58
2019-04-19 03:00:00 5.2 23 Sudeste 43 Sudeste 0 832.5 0.6 55
2019-04-19 02:00:00 5.7 24 Sudeste 41 Sudeste 0 832.4 0.8 50
2019-04-19 01:00:00 6.2 26 Sudeste 44 Sudeste 0 832.2 1 42
2019-04-19 00:00:00 7.5 24 Sudeste 44 Sudeste 0 831.9 1.1 37
2019-04-18 23:00:00 6.9 19 Sudeste 39 Sudeste 0 831.6 0.9 39
2019-04-18 22:00:00 8.6 18 Sudeste 41 Sudeste 0 831.2 0.7 34
2019-04-18 21:00:00 8.2 20 Sudeste 40 Sudeste 0 830.8 0.5 37
2019-04-18 20:00:00 8.6 18 Sudeste 32 Sudeste 0 830.7 0.6 32
2019-04-18 19:00:00 8.6 22 Sudeste 37 Sudeste 0 830.5 0.2 56
2019-04-18 18:00:00 10.4 14 Sudeste 35 Este 0 830.3 -0.2 50
2019-04-18 17:00:00 10.2 13 Sudeste 30 Sudeste 0 830.1 -0.6 59
2019-04-18 16:00:00 10.6 20 Sudeste 35 Sudeste 0 830.3 -0.6 42
2019-04-18 15:00:00 11.3 13 Sudeste 30 Sudeste 0 830.5 -1.3 36
2019-04-18 14:00:00 10.1 14 Sudeste 31 Sudeste 0 830.7 0.1 52
2019-04-18 13:00:00 8.9 17 Sudeste 35 Sudoeste 0 830.9 0.7 61
2019-04-18 12:00:00 9.7 10 Sudoeste 42 Este 0 831.8 1.9 59
2019-04-18 11:00:00 9.2 17 Sudeste 39 Sudeste 0 830.6 0.8 42
2019-04-18 10:00:00 9.2 9 Noroeste 26 Oeste 0 830.2 0.3 41
2019-04-18 09:00:00 7.2 3 Sudeste 8 Sudeste 0 829.9 0.2 57
2019-04-18 08:00:00 6.1 4 Este 8 Sudeste 0 829.8 -0.1 64
2019-04-18 07:00:00 6 3 Este 10 Sudeste 0 829.9 -0.2 60
2019-04-18 06:00:00 6.5 5 Sudeste 14 Sudeste 0 829.7 -0.6 64
2019-04-18 05:00:00 8.3 12 Este 24 Este 0 829.9 -0.9 49
2019-04-18 04:00:00 7 4 Sudeste 10 Sudeste 0 830.1 -0.9 54
2019-04-18 03:00:00 6.7 6 Sudeste 10 Este 0 830.3 -0.7 58
2019-04-18 02:00:00 6.7 5 Sudeste 10 Sudeste 0 830.8 -0.2 70
2019-04-18 01:00:00 6.9 6 Sudeste 10 Sudeste 0 831 0.4 68
2019-04-18 00:00:00 6.7 6 Sudeste 9 Sudeste 0 831 1.1 77
2019-04-17 23:00:00 7 4 Sudeste 10 Sudeste 0 831 1.4 75
2019-04-17 22:00:00 7.4 5 Sudeste 10 Sudeste 0 830.6 1.1 66
2019-04-17 21:00:00 8.1 5 Sudeste 9 Sudeste 0 829.9 0.6 62
2019-04-17 20:00:00 9.4 4 Sudeste 13 Sudeste 0 829.6 0.3 71
2019-04-17 19:00:00 12.4 10 Sur 24 Sudoeste 0 829.5 -0.4 57
2019-04-17 18:00:00 14.8 10 Sur 23 Sudoeste 0 829.3 -0.7 45
2019-04-17 17:00:00 15.1 4 Sudoeste 19 Noroeste 0 829.3 -1 52
2019-04-17 16:00:00 14.4 8 Noroeste 23 Noroeste 0 829.9 -0.6 57
2019-04-17 15:00:00 14.1 10 Sur 27 Sur 0 830 -0.4 55
2019-04-17 14:00:00 12.6 14 Sur 26 Sudoeste 0 830.3 -0.2 59
2019-04-17 13:00:00 12.9 7 Norte 16 Norte 0 830.5 0.4 58
2019-04-17 12:00:00 11.9 7 Norte 15 Norte 0 830.4 0 59
2019-04-17 11:00:00 8.4 5 Norte 12 Norte 0 830.5 0.2 75
2019-04-17 10:00:00 6.3 2 Noroeste 8 Noroeste 0 830.1 0 82
2019-04-17 09:00:00 3.1 4 Sudeste 10 Sudeste 0 830.4 0.1 90
2019-04-17 08:00:00 2.7 4 Sur 9 Sudoeste 0 830.3 -0.4 91
2019-04-17 07:00:00 2.6 2 Nordeste 9 Sudoeste 0 830.1 -0.9 92
2019-04-17 06:00:00 2.8 5 Sur 8 Sudoeste 0 830.3 -0.9 93
2019-04-17 05:00:00 2.7 2 Este 8 Sudeste 0 830.7 -0.8 97
2019-04-17 04:00:00 2.1 5 Sudeste 8 Sudeste 0 831 -0.8 98
2019-04-17 03:00:00 1.9 5 Sudeste 8 Sudeste 0 831.2 -0.7 92
2019-04-17 02:00:00 2.9 5 Sudeste 8 Sudeste 0 831.5 -0.4 91
2019-04-17 01:00:00 4 3 Sur 6 Noroeste 0 831.8 0.1 90
2019-04-17 00:00:00 4.7 4 Sudeste 15 Sudeste 0 831.9 0.4 87
2019-04-16 23:00:00 4.4 3 Sudeste 8 Sudoeste 0 831.9 0.7 89
2019-04-16 22:00:00 4.9 4 Sur 16 Sur 0 831.7 0.8 84
2019-04-16 21:00:00 4.9 10 Sur 28 Sur 0 831.5 0.9 84
2019-04-16 20:00:00 5.1 17 Sur 31 Sur 0 831.2 0.5 86
2019-04-16 19:00:00 6.8 17 Sur 30 Sudeste 0 830.9 0 77
2019-04-16 18:00:00 8.9 2 Sur 18 Sudoeste 0 830.6 -0.6 71
2019-04-16 17:00:00 7.8 8 Sur 22 Sudoeste 0 830.7 -0.3 75
2019-04-16 16:00:00 7.2 9 Sur 23 Sur 0 830.9 0 79
2019-04-16 15:00:00 5.8 17 Sur 27 Sudeste 0 831.2 0.2 87
2019-04-16 14:00:00 6.2 6 Oeste 18 Sudoeste 0 831 0.7 83
2019-04-16 13:00:00 5.5 5 Este 20 Este 0 830.9 0.9 87
2019-04-16 12:00:00 5.1 7 Sudeste 21 Sur 0 831 1.4 86
2019-04-16 11:00:00 5 2 Sudoeste 6 Norte 0 830.3 1.2 92
2019-04-16 10:00:00 4.6 5 Noroeste 8 Noroeste 0 830 1.4 96
2019-04-16 09:00:00 3.8 5 Sudeste 8 Sur 0 829.6 1.4 95
2019-04-16 08:00:00 3.2 3 Este 10 Este 0 829.1 1 97
2019-04-16 07:00:00 3.1 4 Nordeste 13 Sudeste 0 828.6 0.4 96
2019-04-16 06:00:00 3.1 13 Sudeste 21 Sudeste 0 828.2 0.4 94
2019-04-16 05:00:00 3 2 Este 9 Sudeste 0 828.1 -0.9 96
2019-04-16 04:00:00 3.9 5 Sudeste 15 Este 0 828.2 -0.2 93
2019-04-16 03:00:00 3.8 8 Este 26 Sur 3.8 827.8 -0.3 98
2019-04-16 02:00:00 4.8 7 Oeste 34 Sur 2.2 829 1.3 93
2019-04-16 01:00:00 5.7 12 Sudoeste 26 Sudoeste 0.8 828.4 0.7 85
2019-04-16 00:00:00 5.6 6 Nordeste 13 Este 0 828.1 0.4 89
2019-04-15 23:00:00 5.5 5 Este 9 Sudeste 0 827.7 0.6 84
2019-04-15 22:00:00 6.4 5 Sur 17 Sur 0 827.7 0.4 80
2019-04-15 21:00:00 7.9 6 Sur 14 Sudeste 0 827.7 0.2 77
2019-04-15 20:00:00 8.9 3 Noroeste 21 Sur 0 827.1 -0.3 72
2019-04-15 19:00:00 9.4 13 Sur 27 Sur 0 827.3 -0.1 68
2019-04-15 18:00:00 9.7 14 Sur 35 Sur 0 827.5 -0.4 68
2019-04-15 17:00:00 12 18 Sur 32 Sur 0 827.4 -0.7 56
2019-04-15 16:00:00 12.3 13 Sur 33 Sur 0 827.4 -1 51
2019-04-15 15:00:00 12.8 15 Sur 29 Sudoeste 0 827.9 -0.9 49
2019-04-15 14:00:00 14.5 12 Sudoeste 30 Sudoeste 0 828.1 -1 45
2019-04-15 13:00:00 14.4 9 Sudeste 18 Sudeste 0 828.4 -0.7 47
2019-04-15 12:00:00 13.3 4 Norte 10 Noroeste 0 828.8 -0.3 55
2019-04-15 11:00:00 11.2 5 Norte 10 Noroeste 0 829.1 0 58
2019-04-15 10:00:00 9.4 0 Calma 10 Nordeste 0 829.1 0.3 67
2019-04-15 09:00:00 7.2 4 Nordeste 10 Este 0 829.1 0.1 73
2019-04-15 08:00:00 4.7 5 Este 9 Sudeste 0 829.1 0 84
2019-04-15 07:00:00 4.2 5 Sur 10 Sudoeste 0 828.8 -0.3 85
2019-04-15 06:00:00 4.7 5 Este 11 Sudeste 0 829 -0.3 81
2019-04-15 05:00:00 5.1 6 Este 13 Sudoeste 0 829.1 -0.6 77
2019-04-15 04:00:00 4.5 5 Sudeste 9 Sudeste 0 829.1 -0.8 78
2019-04-15 03:00:00 5 6 Sudeste 11 Sudeste 0 829.3 -0.2 79
2019-04-15 02:00:00 5.3 5 Nordeste 13 Sudoeste 0 829.7 0.5 81
2019-04-15 01:00:00 5.2 6 Sur 14 Sudoeste 0 829.9 1.1 77
2019-04-15 00:00:00 7.9 6 Oeste 23 Oeste 0 829.5 1.4 66
2019-04-14 23:00:00 7.9 8 Sudoeste 28 Oeste 0 829.2 1.1 67
2019-04-14 22:00:00 6 6 Sudeste 9 Sudeste 0 828.8 1.1 75
2019-04-14 21:00:00 7.8 5 Sur 13 Sudoeste 0 828.1 0.7 69
2019-04-14 20:00:00 9.9 4 Sudoeste 13 Oeste 0 828.1 1 62
2019-04-14 19:00:00 11 8 Noroeste 18 Norte 0 827.7 0.4 59
2019-04-14 18:00:00 10.9 9 Noroeste 24 Noroeste 0 827.4 0.2 60
2019-04-14 17:00:00 10.6 9 Norte 22 Norte 0 827.1 0 57
2019-04-14 16:00:00 10.6 10 Noroeste 20 Noroeste 0 827.3 0.3 58
2019-04-14 15:00:00 10.5 5 Norte 12 Nordeste 0 827.2 0.2 40
2019-04-14 14:00:00 9.6 4 Norte 11 Noroeste 0 827.1 -0.1 33
2019-04-14 13:00:00 9.6 6 Noroeste 13 Norte 0 827 -0.1 32
2019-04-14 12:00:00 9.2 6 Noroeste 14 Noroeste 0 827 0 33
2019-04-14 11:00:00 8.2 4 Norte 16 Norte 0 827.2 0.1 29
2019-04-14 10:00:00 6.8 9 Noroeste 15 Oeste 0 827.1 0.2 27
2019-04-14 09:00:00 3.6 5 Sudoeste 13 Sudoeste 0 827 0.1 40
2019-04-14 08:00:00 1.4 6 Sur 10 Sudoeste 0 827.1 -0.2 44
2019-04-14 07:00:00 2 7 Sur 13 Sudoeste 0 826.9 -0.6 40
2019-04-14 06:00:00 1 6 Sudeste 12 Sudeste 0 826.9 -0.9 43
2019-04-14 05:00:00 1.4 5 Sudeste 11 Oeste 0 827.3 -1 38
2019-04-14 04:00:00 3.6 5 Sudoeste 16 Oeste 0 827.5 -1.5 26
2019-04-14 03:00:00 3.8 7 Oeste 18 Sudoeste 0 827.8 -1.2 21
2019-04-14 02:00:00 3.7 9 Sudoeste 16 Sudoeste 0 828.3 -1 20
2019-04-14 01:00:00 1.2 4 Sudeste 13 Sudoeste 0 829 -0.4 35
2019-04-14 00:00:00 1.7 5 Sudoeste 14 Sudoeste 0 829 -0.1 39
2019-04-13 23:00:00 2.3 8 Sudoeste 12 Sudoeste 0 829.3 0.2 38
2019-04-13 22:00:00 2.6 6 Sur 10 Sur 0 829.4 0.5 39
2019-04-13 21:00:00 3.6 4 Sudeste 13 Sudoeste 0 829.1 0.1 35
2019-04-13 20:00:00 6.8 7 Oeste 17 Noroeste 0 829.1 0.3 18
2019-04-13 19:00:00 7.9 3 Sudoeste 19 Norte 0 828.9 0 23
2019-04-13 18:00:00 9.7 12 Noroeste 30 Noroeste 0 829 0 13
2019-04-13 17:00:00 11.1 12 Noroeste 27 Norte 0 828.8 -0.3 12
2019-04-13 16:00:00 10.8 15 Noroeste 33 Norte 0 828.9 -0.4 10
2019-04-13 15:00:00 10.2 13 Noroeste 35 Noroeste 0 829 -0.5 10
2019-04-13 14:00:00 10 10 Noroeste 27 Noroeste 0 829.1 -0.1 9
2019-04-13 13:00:00 8.9 14 Noroeste 31 Noroeste 0 829.3 0.3 9
2019-04-13 12:00:00 7.5 13 Noroeste 25 Noroeste 0 829.5 0.8 12
2019-04-13 11:00:00 6.1 10 Noroeste 20 Noroeste 0 829.2 0.7 17
2019-04-13 10:00:00 4.7 6 Norte 12 Noroeste 0 829 1 27
2019-04-13 09:00:00 1.2 6 Oeste 15 Sur 0 828.7 0.9 34
2019-04-13 08:00:00 -0.6 7 Sudoeste 13 Sudoeste 0 828.5 0.5 38
2019-04-13 07:00:00 -1.5 8 Sur 13 Sur 0 828 -0.2 38
2019-04-13 06:00:00 -1.6 8 Sur 14 Sur 0 827.8 -0.9 41
2019-04-13 05:00:00 -2 7 Sur 13 Sur 0 828 -1.1 50
2019-04-13 04:00:00 -2.3 5 Sur 13 Sur 0 828.2 -1.2 56
2019-04-13 03:00:00 -2.2 5 Sur 15 Sudoeste 0 828.7 -0.5 61
2019-04-13 02:00:00 -1.9 6 Sudoeste 11 Sudoeste 0 829.1 -0.1 60
2019-04-13 01:00:00 -1.1 6 Sur 14 Sudoeste 0 829.4 0.4 56
2019-04-13 00:00:00 -1.2 8 Sur 13 Sudoeste 0 829.2 0.6 53
2019-04-12 23:00:00 -1.3 6 Sur 10 Sur 0 829.2 1 58
2019-04-12 22:00:00 0 5 Sur 13 Sudoeste 0 829 1.3 52
2019-04-12 21:00:00 1.7 6 Sudoeste 16 Sudoeste 0 828.6 1 50
2019-04-12 20:00:00 3.6 8 Sudoeste 28 Noroeste 0 828.2 0.8 42
2019-04-12 19:00:00 6.8 13 Noroeste 32 Noroeste 0 827.7 0.1 34
2019-04-12 18:00:00 8.1 14 Noroeste 28 Noroeste 0 827.6 -0.1 31
2019-04-12 17:00:00 8.5 10 Noroeste 28 Noroeste 0 827.4 0 28
2019-04-12 16:00:00 8.3 11 Noroeste 25 Noroeste 0 827.6 0.4 26
2019-04-12 15:00:00 8.3 10 Noroeste 27 Oeste 0 827.7 0.4 30
2019-04-12 14:00:00 7 12 Noroeste 30 Oeste 0 827.4 0.3 34
2019-04-12 13:00:00 5.8 12 Noroeste 28 Oeste 0 827.2 0.5 33
2019-04-12 12:00:00 4.4 12 Noroeste 28 Noroeste 0 827.3 0.8 44
2019-04-12 11:00:00 3 12 Noroeste 23 Noroeste 0 827.1 0.6 52
2019-04-12 10:00:00 1.9 11 Noroeste 23 Noroeste 0 826.7 0.4 53
2019-04-12 09:00:00 1.2 14 Noroeste 27 Noroeste 0 826.5 0.2 52
2019-04-12 08:00:00 -0.1 4 Oeste 11 Oeste 0 826.5 0.3 64
2019-04-12 07:00:00 -0.2 6 Sudoeste 22 Noroeste 0 826.3 0 70
2019-04-12 06:00:00 0 10 Noroeste 26 Oeste 0 826.3 -0.2 74
2019-04-12 05:00:00 0.1 9 Oeste 26 Oeste 0 826.2 -0.6 79
2019-04-12 04:00:00 0.4 13 Oeste 35 Noroeste 0 826.3 -0.3 81
2019-04-12 03:00:00 0.2 10 Noroeste 24 Noroeste 0.2 826.5 -0.4 94
2019-04-12 02:00:00 0.6 9 Oeste 23 Oeste 0 826.8 0 92
2019-04-12 01:00:00 1 6 Oeste 23 Oeste 0 826.6 -0.1 86
2019-04-12 00:00:00 0.8 8 Noroeste 30 Noroeste 0 826.9 0.5 88
2019-04-11 23:00:00 1.3 5 Noroeste 24 Oeste 0 826.8 0.8 84
2019-04-11 22:00:00 1.3 13 Noroeste 23 Noroeste 0 826.7 1.1 83
2019-04-11 21:00:00 1.4 5 Oeste 18 Oeste 0 826.4 1.1 78
2019-04-11 20:00:00 2.2 10 Noroeste 20 Oeste 0 826 0.6 76
2019-04-11 19:00:00 3 13 Noroeste 23 Oeste 0 825.6 0.3 71
2019-04-11 18:00:00 4.7 12 Oeste 31 Noroeste 0 825.3 0.1 63
2019-04-11 17:00:00 4.1 14 Noroeste 35 Noroeste 0 825.4 0.1 62
2019-04-11 16:00:00 4.2 14 Noroeste 36 Norte 0 825.3 -0.1 59
2019-04-11 15:00:00 5.2 13 Noroeste 28 Noroeste 0 825.2 -0.5 66
2019-04-11 14:00:00 3.9 13 Noroeste 27 Noroeste 0 825.3 -0.3 62
2019-04-11 13:00:00 3 10 Oeste 24 Noroeste 0 825.4 -0.1 65
2019-04-11 12:00:00 2.6 13 Oeste 23 Noroeste 0 825.7 0.4 64
2019-04-11 11:00:00 1.6 7 Norte 18 Noroeste 0 825.6 0.6 60
2019-04-11 10:00:00 0.9 8 Noroeste 26 Noroeste 0 825.5 0.8 70
2019-04-11 09:00:00 -1.2 6 Oeste 14 Sudoeste 0 825.3 0.6 77
2019-04-11 08:00:00 -1.8 5 Sudoeste 15 Oeste 0 825 0.7 82
2019-04-11 07:00:00 -1.8 6 Sudoeste 29 Oeste 0 824.7 0.3 84
2019-04-11 06:00:00 -1.5 12 Oeste 26 Oeste 0 824.7 0.4 86
2019-04-11 05:00:00 -1.1 10 Oeste 24 Oeste 0 824.3 -0.5 85
2019-04-11 04:00:00 -0.8 6 Oeste 17 Oeste 0 824.4 -0.3 97
2019-04-11 03:00:00 -1 7 Oeste 22 Oeste 0.6 824.3 -0.4 98
2019-04-11 02:00:00 -0.7 5 Oeste 19 Noroeste 1 824.8 0 98
2019-04-11 01:00:00 -0.6 5 Noroeste 19 Sudoeste 1 824.7 -0.1 98
2019-04-11 00:00:00 -0.6 7 Oeste 25 Oeste 0 824.7 0.6 96
2019-04-10 23:00:00 -0.3 5 Noroeste 18 Oeste 0.2 824.8 1 93
2019-04-10 22:00:00 -0.5 2 Oeste 17 Norte 0 824.8 1.7 91
2019-04-10 21:00:00 -0.1 5 Noroeste 15 Noroeste 0 824.1 1.1 85
2019-04-10 20:00:00 0.8 9 Norte 26 Oeste 0 823.8 1.1 87
2019-04-10 19:00:00 4.2 14 Oeste 28 Oeste 0 823.1 0.9 54
2019-04-10 18:00:00 3 10 Noroeste 28 Oeste 0 823 0.2 60
2019-04-10 17:00:00 3.7 14 Noroeste 32 Noroeste 0 822.7 0 66
2019-04-10 16:00:00 5.2 14 Noroeste 36 Oeste 0 822.2 -0.4 64
2019-04-10 15:00:00 2.6 10 Noroeste 25 Noroeste 0 822.8 0.5 78
2019-04-10 14:00:00 1.3 3 Noroeste 13 Oeste 0.4 822.7 0.6 92
2019-04-10 13:00:00 1.1 10 Noroeste 18 Oeste 0.2 822.6 0.8 89
2019-04-10 12:00:00 3.3 9 Noroeste 20 Norte 0 822.3 0.7 64
2019-04-10 11:00:00 2.9 8 Noroeste 15 Noroeste 0 822.1 0.6 64
2019-04-10 10:00:00 2.4 2 Noroeste 10 Oeste 0 821.8 0.6 64
2019-04-10 09:00:00 -1.1 3 Sudeste 9 Sur 0 821.6 0.5 81
2019-04-10 08:00:00 -2.2 5 Sur 12 Sur 0 821.5 0.3 87
2019-04-10 07:00:00 -2.4 5 Sur 11 Sur 0 821.2 -0.2 85
2019-04-10 06:00:00 -2.5 5 Sudeste 10 Sudeste 0 821.1 -0.2 85
2019-04-10 05:00:00 -2 6 Sudeste 9 Sudeste 0 821.2 -0.3 83
2019-04-10 04:00:00 -2.1 5 Sudeste 12 Sur 0 821.4 -0.3 84
2019-04-10 03:00:00 -2 6 Sudeste 11 Sudeste 0 821.3 -0.3 85
2019-04-10 02:00:00 -1.5 5 Sudeste 10 Sur 0 821.5 -0.4 86
2019-04-10 01:00:00 -1 4 Sudeste 13 Sudoeste 0 821.7 -0.2 88
2019-04-10 00:00:00 -0.9 4 Sudeste 6 Sur 0 821.6 0.1 93
2019-04-09 23:00:00 -0.5 2 Sudeste 8 Sur 0 821.9 0.5 93
2019-04-09 22:00:00 0.1 2 Norte 7 Sudoeste 0 821.9 0.9 96
2019-04-09 21:00:00 0.5 2 Este 8 Norte 0 821.5 0.6 97
2019-04-09 20:00:00 1 5 Noroeste 10 Noroeste 0.6 821.4 0.8 95
2019-04-09 19:00:00 2.1 6 Noroeste 14 Norte 0 821 0.3 92
2019-04-09 18:00:00 2.1 5 Sudeste 14 Sudeste 0.6 820.9 0.2 86
2019-04-09 17:00:00 3.3 4 Sur 21 Sudeste 0 820.6 -0.4 77
2019-04-09 16:00:00 4.3 8 Noroeste 16 Noroeste 0 820.7 -0.5 71
2019-04-09 15:00:00 5.3 6 Nordeste 12 Este 0 820.7 -0.6 70
2019-04-09 14:00:00 3.8 3 Este 20 Noroeste 0.2 821 -0.5 76
2019-04-09 13:00:00 5.6 4 Nordeste 12 Nordeste 0 821.2 -0.3 64
2019-04-09 12:00:00 5.7 4 Sudoeste 7 Sur 0 821.3 -0.2 66
2019-04-09 11:00:00 4 3 Sudeste 6 Sur 0 821.5 0.1 78
2019-04-09 10:00:00 1.3 5 Sudeste 8 Sudeste 0 821.5 -0.1 88
2019-04-09 09:00:00 -0.3 0 Calma 5 Norte 0 821.5 -0.5 98
2019-04-09 08:00:00 -1.8 3 Sur 6 Sur 0 821.4 -0.5 94
2019-04-09 07:00:00 -0.2 0 Calma 17 Sudoeste 0.6 821.6 -0.5 97
2019-04-09 06:00:00 0.2 8 Oeste 22 Noroeste 2.2 822 -0.4 96
2019-04-09 05:00:00 1 5 Sur 14 Este 0 821.9 -1 93
2019-04-09 04:00:00 1.1 8 Sudeste 24 Sudeste 1.4 822.1 -1.2 93
2019-04-09 03:00:00 0.9 4 Sudeste 8 Sudeste 0 822.4 -1 94
2019-04-09 02:00:00 1.2 4 Este 16 Sudeste 0 822.9 -0.9 91
2019-04-09 01:00:00 1.3 3 Sudoeste 10 Sur 0 823.3 -0.5 96
2019-04-09 00:00:00 0.7 3 Sudeste 9 Sudeste 0 823.4 -0.2 95
2019-04-08 23:00:00 1.3 4 Este 8 Sudeste 0 823.8 0.9 95
2019-04-08 22:00:00 1.5 5 Sur 10 Sur 0 823.8 0.9 94
2019-04-08 21:00:00 1.9 4 Sur 22 Noroeste 1.8 823.6 0.8 91
2019-04-08 20:00:00 4.3 10 Sur 24 Sudeste 0.2 822.9 -0.1 80
2019-04-08 19:00:00 5 17 Sudeste 24 Sudeste 0 822.9 -0.1 78
2019-04-08 18:00:00 6.4 10 Sudeste 21 Sudeste 0 822.8 -0.4 67
2019-04-08 17:00:00 6.7 8 Sudeste 11 Sudeste 0 823 0 59
2019-04-08 16:00:00 8.2 5 Sudoeste 14 Noroeste 0 823 0.1 52
2019-04-08 15:00:00 7.1 9 Noroeste 16 Noroeste 0 823.2 0.2 54
2019-04-08 14:00:00 7.8 6 Noroeste 15 Norte 0 823 0 47
2019-04-08 13:00:00 6.2 6 Norte 17 Noroeste 0 822.9 0 57
2019-04-08 12:00:00 6 3 Sudeste 10 Norte 0 823 0.3 60
2019-04-08 11:00:00 2.5 3 Este 11 Norte 0 823 0.5 78
2019-04-08 10:00:00 -0.4 8 Norte 14 Norte 0 822.9 0.5 92
2019-04-08 09:00:00 -0.7 3 Este 10 Nordeste 0 822.7 0.1 93
2019-04-08 08:00:00 -1 4 Norte 11 Este 0 822.5 -0.2 95
2019-04-08 07:00:00 -1.3 3 Nordeste 9 Nordeste 0 822.4 -0.7 96
2019-04-08 06:00:00 -0.9 4 Nordeste 9 Nordeste 0 822.6 -0.8 94
2019-04-08 05:00:00 -0.9 5 Sudeste 10 Este 0 822.7 -1.1 93
2019-04-08 04:00:00 -0.8 2 Nordeste 9 Nordeste 0 823.1 -0.8 93
2019-04-08 03:00:00 -0.8 5 Sudoeste 10 Noroeste 0 823.4 -0.6 89
2019-04-08 02:00:00 -0.9 5 Este 12 Sudeste 0 823.8 0 91
2019-04-08 01:00:00 -0.5 4 Nordeste 11 Este 0 823.9 0.2 87
2019-04-08 00:00:00 -0.7 4 Sudeste 13 Sudeste 0 824 1 86
2019-04-07 23:00:00 -0.6 3 Sur 11 Sudeste 0 823.8 1.4 84
2019-04-07 22:00:00 -0.5 5 Sur 11 Sur 0 823.7 2 82
2019-04-07 21:00:00 0.4 5 Sudeste 11 Sur 0 823 1.9 81
2019-04-07 20:00:00 1.4 6 Sudeste 14 Nordeste 0 822.4 2 71
2019-04-07 19:00:00 2 4 Este 12 Nordeste 0 821.7 1.7 61
2019-04-07 18:00:00 3.1 5 Norte 17 Nordeste 0 821.1 1.5 53
2019-04-07 17:00:00 3.9 11 Norte 20 Norte 0 820.4 1 54
2019-04-07 16:00:00 4.5 5 Oeste 15 Oeste 0 820 1.2 52
2019-04-07 15:00:00 4.9 4 Noroeste 25 Norte 0 819.6 1.2 49
2019-04-07 14:00:00 3.1 14 Norte 27 Noroeste 0 819.4 1.7 59
2019-04-07 13:00:00 3.9 13 Norte 24 Norte 0 818.8 1.8 54
2019-04-07 12:00:00 3.6 9 Norte 22 Norte 0 818.4 2 57
2019-04-07 11:00:00 2.3 7 Norte 16 Norte 0 817.7 2 61
2019-04-07 10:00:00 0.5 4 Sur 12 Sudoeste 0 817 1.9 65
2019-04-07 09:00:00 -2.4 6 Sur 12 Sur 0 816.4 1.9 77
2019-04-07 08:00:00 -3.2 8 Sudeste 11 Sur 0 815.7 1.1 82
2019-04-07 07:00:00 -4 6 Sudeste 10 Sudeste 0 815.1 0.6 91
2019-04-07 06:00:00 -4.6 4 Sudeste 9 Nordeste 0 814.5 -0.2 93
2019-04-07 05:00:00 -4.8 3 Este 8 Sudeste 0 814.6 -0.5 94
2019-04-07 04:00:00 -3.9 6 Sudeste 8 Sudeste 0 814.5 -0.9 92
2019-04-07 03:00:00 -2.8 2 Sur 9 Sudeste 0 814.7 -0.7 90
2019-04-07 02:00:00 -2.1 4 Este 8 Este 0 815.1 -0.4 94
2019-04-07 01:00:00 -2.4 4 Este 12 Sudeste 0 815.4 0.1 93
2019-04-07 00:00:00 -2.7 5 Sudeste 9 Sudeste 0 815.4 0.2 91
2019-04-06 23:00:00 -2 4 Este 15 Sur 0.2 815.5 0.8 96
2019-04-06 22:00:00 -2 5 Sudeste 13 Norte 1 815.3 1 92
2019-04-06 21:00:00 -0.4 4 Noroeste 14 Sur 0 815.2 1.2 82
2019-04-06 20:00:00 0.1 6 Sur 23 Sudeste 0 814.7 1.1 71
2019-04-06 19:00:00 2.7 3 Nordeste 26 Oeste 0 814.3 1.1 60
2019-04-06 18:00:00 3.5 10 Sudoeste 26 Oeste 0.2 814 1.1 57
2019-04-06 17:00:00 0.9 11 Noroeste 21 Noroeste 0 813.6 1.1 79
2019-04-06 16:00:00 3.4 5 Oeste 23 Sudoeste 0 813.2 0.9 58
2019-04-06 15:00:00 2.7 13 Sudoeste 34 Sudoeste 0 812.9 1 63
2019-04-06 14:00:00 0.5 14 Norte 26 Norte 0.2 812.5 0.9 88
2019-04-06 13:00:00 2.3 6 Sudoeste 29 Sur 3.8 812.3 1.4 71
2019-04-06 12:00:00 1.2 5 Noroeste 11 Norte 1.2 811.9 1.6 81
2019-04-06 11:00:00 -0.1 6 Noroeste 9 Noroeste 0.8 811.6 1.5 88
2019-04-06 10:00:00 -0.8 4 Nordeste 15 Noroeste 0.2 810.9 1 92
2019-04-06 09:00:00 -1.5 3 Norte 8 Nordeste 0 810.3 0.4 96
2019-04-06 08:00:00 -1.9 4 Nordeste 10 Nordeste 0 810.1 0.5 98
2019-04-06 07:00:00 -1.8 4 Norte 28 Sur 0 809.9 0 97
2019-04-06 06:00:00 -1.2 13 Sur 32 Sur 0 809.9 -0.1 93
2019-04-06 05:00:00 -0.9 12 Sur 29 Sudoeste 0.2 809.6 -1.2 90
2019-04-06 04:00:00 -0.5 7 Sudoeste 30 Sudeste 0.2 809.9 -1.3 90
2019-04-06 03:00:00 0 8 Oeste 31 Este 1.6 810 -1.8 93
2019-04-06 02:00:00 -0.7 8 Este 23 Sudeste 2.4 810.8 -1.2 96
2019-04-06 01:00:00 -0.4 9 Sudeste 24 Este 5.6 811.2 -1.5 96
2019-04-06 00:00:00 -0.4 7 Sudeste 28 Sudeste 3.4 811.8 -1.1 95
2019-04-05 23:00:00 0.5 4 Este 25 Sudeste 2.2 812 -1 94
2019-04-05 22:00:00 0.9 18 Sudeste 48 Sudeste 0.4 812.7 -0.5 90
2019-04-05 21:00:00 0.7 5 Oeste 40 Sudoeste 0 812.9 -0.2 85
2019-04-05 20:00:00 1.2 12 Sudoeste 30 Sudeste 0.2 813 -0.4 79
2019-04-05 19:00:00 1.3 6 Sudeste 35 Este 0.2 813.2 -0.6 83
2019-04-05 18:00:00 1.6 6 Este 24 Sudeste 0 813.1 -0.9 82
2019-04-05 17:00:00 2.4 12 Sudoeste 31 Sudoeste 0 813.4 -0.8 74
2019-04-05 16:00:00 1.9 8 Sudoeste 29 Sudoeste 0 813.8 -0.7 72
2019-04-05 15:00:00 1.9 11 Sudoeste 33 Sudoeste 0 814 -0.5 82
2019-04-05 14:00:00 2 15 Sudoeste 32 Sudoeste 0 814.2 -0.2 81
2019-04-05 13:00:00 1.4 11 Sudoeste 30 Sur 0 814.5 0.4 81
2019-04-05 12:00:00 1.1 3 Noroeste 24 Sudoeste 0 814.5 0.3 75
2019-04-05 11:00:00 1.7 9 Sudoeste 26 Sur 0 814.4 0.1 65
2019-04-05 10:00:00 0.9 8 Nordeste 14 Nordeste 0 814.1 0.1 61
2019-04-05 09:00:00 -2.5 5 Este 14 Nordeste 0 814.2 0 68
2019-04-05 08:00:00 -3.5 8 Este 13 Sudeste 0 814.3 -0.4 67
2019-04-05 07:00:00 -3.8 7 Sudeste 10 Sudeste 0 814 -0.6 72
2019-04-05 06:00:00 -3.9 4 Sudeste 9 Sudeste 0 814.2 -0.5 78
2019-04-05 05:00:00 -3.4 5 Sudeste 10 Este 0 814.7 -0.2 77
2019-04-05 04:00:00 -2.8 4 Sudeste 11 Sudeste 0 814.6 -0.8 74
2019-04-05 03:00:00 -3 5 Sudeste 14 Sudeste 0 814.7 -1 79
2019-04-05 02:00:00 -2.8 6 Sudeste 13 Sudeste 0 814.9 -0.8 77
2019-04-05 01:00:00 -2.9 5 Sudeste 13 Sudeste 0 815.4 -0.1 73
2019-04-05 00:00:00 -2.8 5 Sudeste 10 Sudeste 0 815.7 0.7 79
2019-04-04 23:00:00 -2.5 4 Sur 14 Sur 0 815.7 1.1 77
2019-04-04 22:00:00 -1.2 8 Sur 16 Sudeste 0 815.5 0.9 66
2019-04-04 21:00:00 -0.9 12 Sudeste 17 Sudeste 0 815 0.7 69
2019-04-04 20:00:00 -0.1 6 Sur 18 Sur 0 814.6 0.5 71
2019-04-04 19:00:00 1.1 11 Sur 25 Sur 0 814.6 0.8 64
2019-04-04 18:00:00 3.3 12 Sur 27 Sudeste 0 814.3 0.5 54
2019-04-04 17:00:00 2.4 11 Sudeste 21 Sudeste 0 814.1 0.2 59
2019-04-04 16:00:00 3.6 8 Sur 22 Sudoeste 0 813.8 -0.1 46
2019-04-04 15:00:00 2.1 6 Sudoeste 16 Sudoeste 0 813.8 0.2 48
2019-04-04 14:00:00 2.5 3 Norte 15 Norte 0 813.9 0.7 51
2019-04-04 13:00:00 1 7 Noroeste 15 Noroeste 0 813.9 1.2 52
2019-04-04 12:00:00 -0.1 5 Noroeste 20 Noroeste 0 813.6 1.2 56
2019-04-04 11:00:00 -2.5 11 Noroeste 23 Noroeste 0.2 813.2 1.5 72
2019-04-04 10:00:00 -3.4 4 Norte 11 Norte 0.4 812.7 1.4 73
2019-04-04 09:00:00 -7.1 2 Sudoeste 10 Sudoeste 0 812.4 1.2 86
2019-04-04 08:00:00 -7.6 4 Sudeste 9 Sudeste 0 811.7 0.4 85
2019-04-04 07:00:00 -6.8 3 Sur 8 Este 0 811.3 -0.1 86
2019-04-04 06:00:00 -5.4 5 Sudeste 8 Sudeste 0 811.2 -0.4 86
2019-04-04 05:00:00 -4.6 5 Este 11 Nordeste 0.4 811.3 -0.9 90
2019-04-04 04:00:00 -4.5 5 Nordeste 12 Este 0.6 811.4 -1.5 94
2019-04-04 03:00:00 -5.5 5 Este 9 Sudeste 0 811.6 -1.3 89
2019-04-04 02:00:00 -4.7 4 Sudeste 15 Sudoeste 0 812.2 -1 93
2019-04-04 01:00:00 -3.9 4 Este 17 Sudoeste 0 812.9 -0.2 91
2019-04-04 00:00:00 -2.6 7 Sudoeste 19 Sudoeste 0 812.9 -0.3 84
2019-04-03 23:00:00 -1.8 8 Noroeste 18 Noroeste 0 813.2 -0.1 96
2019-04-03 22:00:00 -1.5 4 Norte 17 Sudeste 0 813.1 -1 90
2019-04-03 21:00:00 -1.4 4 Sudoeste 19 Oeste 0 813.2 -1.2 92
2019-04-03 20:00:00 -1 6 Sur 32 Noroeste 0.6 813.3 -1.3 84
2019-04-03 19:00:00 -0.8 8 Oeste 25 Oeste 1.8 814.1 -1.5 96
2019-04-03 18:00:00 0.1 10 Noroeste 20 Sudeste 0.2 814.4 -1.4 94
2019-04-03 17:00:00 2.1 8 Sur 37 Sudeste 0 814.6 -1.8 80
2019-04-03 16:00:00 1.7 16 Sur 37 Sur 1.6 815.6 -1.5 76
2019-04-03 15:00:00 2.1 8 Sur 29 Oeste 0.4 815.8 -1.8 83
2019-04-03 14:00:00 2 19 Sudoeste 46 Sudoeste 0.6 816.4 -1.7 82
2019-04-03 13:00:00 2.2 4 Sudeste 32 Sudoeste 1.4 817.1 -1.2 86
2019-04-03 12:00:00 2.6 10 Sudoeste 42 Sudoeste 1 817.6 -1.1 81
2019-04-03 11:00:00 2.4 7 Sur 30 Sudoeste 1 818.1 -0.9 86
2019-04-03 10:00:00 2.2 9 Sur 24 Sudeste 1.8 818.3 -1.6 86
2019-04-03 09:00:00 1.7 8 Sudoeste 39 Sur 3 818.7 -1.5 90
2019-04-03 08:00:00 2.1 12 Sur 30 Sur 0.2 819 -1.9 89
2019-04-03 07:00:00 1.3 8 Oeste 25 Sur 1 819.9 -1.9 92
2019-04-03 06:00:00 2.1 12 Sudoeste 28 Sur 0.6 820.2 -2.5 87
2019-04-03 05:00:00 1.6 5 Este 13 Norte 0 820.9 -2.6 92
2019-04-03 04:00:00 2.4 5 Sudoeste 15 Sudeste 0 821.8 -2.3 82
2019-04-03 03:00:00 2.7 6 Sudoeste 26 Sur 0 822.7 -1.8 84
2019-04-03 02:00:00 3 12 Sur 27 Sur 0 823.5 -1 79
2019-04-03 01:00:00 2.9 8 Sur 19 Sur 0 824.1 -0.6 82
2019-04-03 00:00:00 2.6 6 Norte 32 Sur 0 824.5 0 91
2019-04-02 23:00:00 1.7 4 Sur 8 Sudoeste 0.2 824.5 0 93
2019-04-02 22:00:00 2.6 2 Oeste 19 Sur 0 824.7 0.3 89
2019-04-02 21:00:00 3.5 3 Norte 18 Sudeste 0 824.5 0 83
2019-04-02 20:00:00 3.8 4 Norte 17 Sudoeste 0 824.5 -0.2 88
2019-04-02 19:00:00 5.1 8 Noroeste 33 Sur 0 824.4 -0.8 76
2019-04-02 18:00:00 5.3 13 Sur 30 Sudoeste 0 824.5 -1.1 73
2019-04-02 17:00:00 6.2 13 Sur 30 Sur 0.2 824.7 -1.2 75
2019-04-02 16:00:00 3.9 13 Sur 31 Sur 2.6 825.2 -1 83
2019-04-02 15:00:00 3.5 11 Sudeste 31 Sur 2.6 825.6 -0.9 84
2019-04-02 14:00:00 6.3 10 Sur 25 Este 0 825.9 -0.6 73
2019-04-02 13:00:00 6.9 6 Sudeste 16 Este 0 826.2 -0.3 70
2019-04-02 12:00:00 6 4 Sudeste 9 Este 0.2 826.5 0.1 80
2019-04-02 11:00:00 5.1 2 Noroeste 8 Noroeste 0 826.5 0.3 91
2019-04-02 10:00:00 3.4 3 Norte 7 Nordeste 0 826.5 0.3 96
2019-04-02 09:00:00 1.7 2 Nordeste 6 Sudoeste 0 826.4 0.3 98
2019-04-02 08:00:00 0.5 4 Sudeste 8 Sudeste 0 826.2 -0.2 97
2019-04-02 07:00:00 0.4 4 Sur 8 Sudeste 0 826.2 -0.7 98
2019-04-02 06:00:00 0.7 5 Sudeste 10 Sudeste 0 826.1 -1.1 96
2019-04-02 05:00:00 0.9 5 Sudeste 10 Sudeste 0 826.4 -1.1 95
2019-04-02 04:00:00 1.5 4 Sudeste 9 Sudeste 0 826.9 -0.7 95
2019-04-02 03:00:00 1.4 5 Sudeste 8 Sudeste 0 827.2 -0.7 97
2019-04-02 02:00:00 1.4 4 Sudeste 10 Sudeste 0 827.5 -0.4 96
2019-04-02 01:00:00 2.2 6 Sudeste 8 Sudeste 0 827.6 -0.3 95
2019-04-02 00:00:00 2.4 4 Este 10 Sudeste 0 827.9 0.4 96
2019-04-01 23:00:00 2.7 5 Sudeste 10 Este 0 827.9 0.6 95
2019-04-01 22:00:00 2.8 4 Sudeste 8 Sudeste 0 827.9 0.8 95
2019-04-01 21:00:00 3 3 Este 8 Sudeste 0 827.5 0.4 95
2019-04-01 20:00:00 3.1 5 Sudeste 7 Sudeste 0 827.3 0.1 94
2019-04-01 19:00:00 4 3 Sur 17 Sudeste 0.2 827.1 0 91
2019-04-01 18:00:00 4 8 Este 18 Sudeste 1.8 827.1 0.2 89
2019-04-01 17:00:00 3.2 13 Sudeste 24 Sudeste 6.6 827.2 0.1 85
2019-04-01 16:00:00 3.8 10 Sudeste 19 Sudeste 3.6 827.1 -0.2 84
2019-04-01 15:00:00 7.8 10 Sur 30 Este 0 826.9 -0.5 68
2019-04-01 14:00:00 10.2 10 Sudeste 25 Sudeste 0 827.1 -0.3 52
2019-04-01 13:00:00 9.7 6 Sur 22 Nordeste 0 827.3 0.3 54
2019-04-01 12:00:00 8.6 6 Norte 13 Norte 0 827.4 0.6 60
2019-04-01 11:00:00 7.2 3 Noroeste 8 Norte 0 827.4 0.9 64
2019-04-01 10:00:00 4.8 4 Noroeste 7 Noroeste 0 827 0.8 76
2019-04-01 09:00:00 2.7 0 Calma 5 Sudeste 0 826.8 0.5 80
2019-04-01 08:00:00 2.1 2 Sudeste 6 Sudeste 0 826.5 0 81
2019-04-01 07:00:00 1.8 4 Sudeste 7 Sudeste 0 826.2 -0.4 84
2019-04-01 06:00:00 1.2 4 Sudeste 6 Sudeste 0 826.3 -0.5 88
2019-04-01 05:00:00 0.5 3 Este 8 Sudeste 0 826.5 -0.4 89
2019-04-01 04:00:00 0.9 5 Este 9 Sudeste 0 826.6 -0.6 82
2019-04-01 03:00:00 1.5 5 Sudeste 8 Sudeste 0 826.8 -0.6 79
2019-04-01 02:00:00 1.9 6 Sudeste 9 Sudeste 0 826.9 -0.7 79
2019-04-01 01:00:00 2.4 3 Sudeste 8 Sudeste 0 827.2 -0.3 80
2019-04-01 00:00:00 2.5 5 Sudeste 8 Sudeste 0 827.4 0.1 79
2019-03-31 23:00:00 2.7 5 Sudeste 7 Sudeste 0 827.6 0.4 77
2019-03-31 22:00:00 2.8 4 Sudeste 9 Este 0 827.5 0.4 73
2019-03-31 21:00:00 3.8 4 Este 28 Sudeste 0 827.3 0.1 70
2019-03-31 20:00:00 4.9 14 Sur 30 Sur 0 827.2 0.1 69
2019-03-31 19:00:00 6.9 16 Sudeste 26 Sudeste 0 827.1 -0.6 63
2019-03-31 18:00:00 7.2 9 Sur 26 Sudeste 0 827.2 -0.8 60
2019-03-31 17:00:00 7.4 18 Sudeste 38 Este 0 827.1 -1.2 60
2019-03-31 16:00:00 7.3 6 Este 27 Este 0 827.7 -0.8 57
2019-03-31 15:00:00 8 8 Nordeste 32 Sudeste 0 828 -0.5 53
2019-03-31 14:00:00 8.4 12 Sudeste 26 Sudeste 0 828.3 -0.2 33
2019-03-31 13:00:00 9.3 8 Sudeste 24 Este 0 828.5 0.1 29
2019-03-31 12:00:00 7.8 9 Nordeste 22 Nordeste 0 828.5 0.1 30
2019-03-31 11:00:00 6.1 10 Este 23 Este 0 828.5 0.1 44
2019-03-31 10:00:00 3.7 4 Sudeste 6 Sudeste 0 828.4 0 52
2019-03-31 09:00:00 0.3 4 Sudeste 10 Sudeste 0 828.4 -0.3 64
2019-03-31 08:00:00 -1.3 7 Sudeste 11 Sudeste 0 828.4 -0.9 65
2019-03-31 07:00:00 -1.6 5 Sudeste 10 Sudeste 0 828.4 -1.4 66
2019-03-31 06:00:00 -1.7 6 Sudeste 10 Sudeste 0 828.7 -1.5 66
2019-03-31 05:00:00 -1.1 6 Sudeste 9 Sudeste 0 829.3 -1.5 73
2019-03-31 03:00:00 -1.2 6 Sudeste 9 Sudeste 0 830.2 -1.3 81
2019-03-31 01:00:00 -0.6 4 Sudeste 9 Sudeste 0 830.8 -0.7 76
2019-03-31 00:00:00 0.3 3 Este 9 Sudeste 0 831.3 0.2 66
2019-03-30 23:00:00 0.5 6 Este 9 Sudeste 0 831.5 0.7 79
2019-03-30 22:00:00 1.2 5 Este 10 Sudeste 0 831.5 0.7 77
2019-03-30 21:00:00 1.7 6 Sudeste 12 Sudeste 0 831.1 0.2 75
2019-03-30 20:00:00 3.4 8 Este 28 Sudeste 0 830.8 -0.1 70
2019-03-30 19:00:00 4.1 18 Sudeste 31 Sudeste 0 830.8 -0.4 66
2019-03-30 18:00:00 6.4 10 Sudeste 26 Sudeste 0 830.9 -0.9 57
2019-03-30 17:00:00 7.1 17 Sudeste 32 Sudeste 0 830.9 -1.1 51
2019-03-30 16:00:00 7.9 18 Sudeste 31 Este 0 831.2 -1.1 49
2019-03-30 15:00:00 7.6 15 Sudeste 28 Sudeste 0 831.8 -0.7 51
2019-03-30 14:00:00 8.1 13 Sudeste 33 Sudeste 0 832 -0.8 45
2019-03-30 13:00:00 8.6 7 Sudeste 28 Sudeste 0 832.3 -0.6 43
2019-03-30 12:00:00 8.7 10 Sur 19 Sudeste 0 832.5 -0.4 41
2019-03-30 11:00:00 6.3 8 Noroeste 12 Norte 0 832.8 -0.1 57
2019-03-30 10:00:00 5.1 5 Norte 8 Norte 0 832.9 0.2 57
2019-03-30 09:00:00 2 0 Calma 5 Sudeste 0 832.9 0.1 68
2019-03-30 08:00:00 -1.7 3 Sudeste 9 Sudeste 0 832.9 0 76
2019-03-30 07:00:00 -2.1 6 Sudeste 12 Sudeste 0 832.7 -0.5 72
2019-03-30 06:00:00 -1.7 9 Sudeste 12 Sudeste 0 832.8 -0.8 70
2019-03-30 05:00:00 -1.9 3 Este 8 Este 0 832.9 -1.3 75
2019-03-30 04:00:00 -1.6 4 Sudeste 8 Nordeste 0 833.2 -1.3 74
2019-03-30 03:00:00 0.1 9 Sudeste 13 Sudeste 0 833.6 -1.3 60
2019-03-30 02:00:00 -1.4 6 Sudeste 9 Sudeste 0 834.2 -0.8 75
2019-03-30 01:00:00 -1.3 4 Sudeste 10 Sudeste 0 834.5 -0.8 85
2019-03-30 00:00:00 -0.8 7 Sudeste 10 Sudeste 0 834.9 -0.4 80
2019-03-29 23:00:00 -0.5 6 Sudeste 9 Sudeste 0 835 -0.2 81
2019-03-29 22:00:00 -0.3 6 Sudeste 10 Sudeste 0 835.3 0.1 81
2019-03-29 21:00:00 0.3 4 Sudeste 22 Sur 0 835.3 0.2 77
2019-03-29 20:00:00 2.3 13 Sudeste 26 Sudeste 0 835.2 -0.1 70
2019-03-29 19:00:00 3.2 14 Sur 22 Sur 0 835.2 -0.2 68
2019-03-29 18:00:00 4.4 12 Sur 23 Este 0 835.1 -0.8 65
2019-03-29 17:00:00 4.7 9 Sudoeste 22 Sudeste 0 835.3 -1.1 65
2019-03-29 16:00:00 4.4 9 Sudeste 18 Sudeste 0 835.4 -1.3 64
2019-03-29 15:00:00 4.5 10 Sudeste 18 Sudeste 0 835.9 -0.8 65
2019-03-29 14:00:00 3.7 10 Sudeste 18 Sudeste 0 836.4 -0.4 68
2019-03-29 13:00:00 3.2 11 Sudeste 28 Sudeste 0 836.7 -0.1 71
2019-03-29 12:00:00 4.1 13 Sudeste 24 Sudeste 0 836.7 0.1 67
2019-03-29 11:00:00 6.2 7 Sudoeste 22 Sudoeste 0 836.8 0.2 53
2019-03-29 10:00:00 5 9 Sur 23 Sudoeste 0 836.8 0.4 58
2019-03-29 09:00:00 3.4 12 Sur 25 Sudoeste 0 836.6 0.6 66
2019-03-29 08:00:00 1.8 14 Sur 22 Sur 0 836.6 0.6 73
2019-03-29 07:00:00 1.5 12 Sur 26 Sudeste 0 836.4 0.2 71
2019-03-29 06:00:00 2 13 Sudeste 28 Sudeste 0 836 -0.5 66
2019-03-29 05:00:00 1.5 17 Sudeste 21 Sudeste 0 836 -0.6 68
2019-03-29 04:00:00 -0.8 3 Este 9 Sudeste 0 836.2 -0.5 74
2019-03-29 03:00:00 -1 4 Este 10 Sudeste 0 836.5 -0.3 78
2019-03-29 02:00:00 -0.8 6 Sudeste 10 Sudeste 0 836.6 -0.2 80
2019-03-29 01:00:00 -0.8 6 Sudeste 9 Sudeste 0 836.7 -0.1 83
2019-03-29 00:00:00 -0.7 5 Sudeste 10 Sudeste 0 836.8 0.3 80
2019-03-28 23:00:00 -0.2 6 Sudeste 9 Sudeste 0 836.8 0.8 82
2019-03-28 22:00:00 1.3 5 Sudeste 15 Sudeste 0 836.8 1 76
2019-03-28 21:00:00 1.5 3 Sudeste 19 Sudeste 0 836.5 0.9 72
2019-03-28 20:00:00 2.7 4 Sudeste 29 Sur 0 836 0.7 69
2019-03-28 19:00:00 4.7 18 Sur 32 Sur 0 835.8 0.4 63
2019-03-28 18:00:00 7.5 10 Sudeste 27 Sudeste 0 835.6 0.2 46
2019-03-28 17:00:00 9.3 13 Sudeste 25 Sudeste 0 835.3 -0.4 41
2019-03-28 16:00:00 10.4 5 Este 27 Sudeste 0 835.4 -0.7 38
2019-03-28 15:00:00 10.7 10 Sudeste 27 Sudeste 0 835.4 -1 32
2019-03-28 14:00:00 10.9 7 Nordeste 24 Norte 0 835.7 -0.8 27
2019-03-28 13:00:00 9.8 10 Norte 31 Nordeste 0 836.1 -0.4 29
2019-03-28 12:00:00 8.2 9 Noroeste 22 Noroeste 0 836.4 0 30
2019-03-28 11:00:00 6.9 9 Noroeste 15 Noroeste 0 836.5 0.2 32
2019-03-28 10:00:00 5.1 6 Norte 11 Noroeste 0 836.5 0.4 31
2019-03-28 09:00:00 2.1 6 Sur 11 Sur 0 836.4 0.5 34
2019-03-28 08:00:00 -1.4 4 Sur 8 Sur 0 836.3 0.5 44
2019-03-28 07:00:00 -2.4 6 Sur 9 Sudoeste 0 836.1 0.4 48
2019-03-28 06:00:00 -2.2 5 Sudeste 10 Sudoeste 0 835.9 0 51
2019-03-28 05:00:00 -2.4 5 Sur 10 Sudeste 0 835.8 -0.4 54
2019-03-28 04:00:00 -1.7 3 Este 10 Sudeste 0 835.7 -0.9 58
2019-03-28 03:00:00 -1.9 6 Sur 12 Sudoeste 0 835.9 -0.7 55
2019-03-28 02:00:00 -1.1 8 Sur 15 Sur 0 836.2 -0.3 52
2019-03-28 01:00:00 -1.5 6 Sur 13 Sudoeste 0 836.6 0.4 49
2019-03-28 00:00:00 -1.3 5 Sur 11 Sur 0 836.6 0.9 48
2019-03-27 23:00:00 -1.2 6 Sur 11 Sur 0 836.5 1.3 56
2019-03-27 22:00:00 -0.5 3 Sudeste 8 Sudoeste 0 836.2 1.2 51
2019-03-27 21:00:00 0.2 5 Sudeste 8 Sudeste 0 835.7 1.3 46
2019-03-27 20:00:00 1.3 5 Este 9 Sudeste 0 835.2 1.3 42
2019-03-27 19:00:00 4 7 Norte 20 Norte 0 835 1 31
2019-03-27 18:00:00 8.2 9 Norte 22 Norte 0 834.4 0.4 23
2019-03-27 17:00:00 9.5 9 Noroeste 35 Oeste 0 833.9 -0.1 17
2019-03-27 16:00:00 10.7 10 Noroeste 28 Norte 0 834 -0.1 14
2019-03-27 15:00:00 10.5 15 Norte 34 Norte 0 834 0.2 13
2019-03-27 14:00:00 10 14 Norte 34 Noroeste 0 834 0.3 18
2019-03-27 13:00:00 9.3 14 Norte 28 Norte 0 834.1 0.7 20
2019-03-27 12:00:00 8.4 8 Norte 19 Norte 0 833.8 0.3 19
2019-03-27 11:00:00 7.4 3 Sudoeste 15 Noroeste 0 833.7 0.4 15
2019-03-27 10:00:00 5.5 5 Oeste 17 Oeste 0 833.4 0.4 14
2019-03-27 09:00:00 2.5 4 Oeste 10 Oeste 0 833.5 0.6 15
2019-03-27 08:00:00 -1.4 3 Sudeste 12 Sur 0 833.3 0.7 27
2019-03-27 07:00:00 -1.4 4 Sudeste 16 Sur 0 833 0.1 25
2019-03-27 06:00:00 -1.7 5 Norte 14 Sudoeste 0 832.9 -0.3 27
2019-03-27 05:00:00 -1.9 4 Sur 12 Sudeste 0 832.6 -1.1 31
2019-03-27 04:00:00 -2.6 4 Sudeste 15 Sur 0 832.9 -1.1 39
2019-03-27 03:00:00 -2.9 7 Sudoeste 15 Sur 0 833.2 -0.6 41
2019-03-27 02:00:00 -2.7 8 Sur 14 Sudoeste 0 833.7 0.2 45
2019-03-27 01:00:00 -2.4 6 Sur 12 Sur 0 834 0.5 44
2019-03-27 00:00:00 -1.4 6 Sudoeste 19 Nordeste 0 833.8 0.4 42
2019-03-26 23:00:00 -1.3 4 Oeste 17 Norte 0 833.5 0.8 41
2019-03-26 22:00:00 -1.1 5 Norte 18 Norte 0 833.5 1.1 36
2019-03-26 21:00:00 -1.3 5 Sur 20 Norte 0 833.4 1.6 35
2019-03-26 20:00:00 0.3 10 Norte 33 Norte 0 832.7 0.8 29
2019-03-26 19:00:00 2.2 14 Noroeste 41 Noroeste 0 832.4 0.7 21
2019-03-26 18:00:00 4.6 16 Noroeste 49 Oeste 0 831.8 0 17
2019-03-26 17:00:00 5.3 20 Oeste 55 Noroeste 0 831.9 -0.2 17
2019-03-26 16:00:00 5.9 21 Noroeste 45 Oeste 0 831.7 -0.3 16
2019-03-26 15:00:00 6.7 20 Noroeste 53 Oeste 0 831.8 -0.9 14
2019-03-26 14:00:00 6.4 20 Noroeste 53 Noroeste 0 832.1 -0.5 10
2019-03-26 13:00:00 5 26 Noroeste 48 Noroeste 0 832 0.4 8
2019-03-26 12:00:00 5.5 24 Norte 53 Norte 0 832.7 1 11
2019-03-26 11:00:00 4.2 23 Norte 60 Norte 0 832.6 1.6 14
2019-03-26 10:00:00 2.9 19 Norte 48 Norte 0 831.6 -0.8 17
2019-03-26 09:00:00 0.6 21 Norte 49 Norte 0 831.7 0.4 22
2019-03-26 08:00:00 -1.4 16 Noroeste 43 Norte 0 831 -0.5 26
2019-03-26 07:00:00 -1.4 14 Norte 38 Nordeste 0 832.4 1.2 19
2019-03-26 06:00:00 -2.5 6 Nordeste 15 Nordeste 0 831.3 0 36
2019-03-26 05:00:00 -2.2 8 Norte 30 Norte 0 831.5 0.1 46
2019-03-26 04:00:00 -2.4 4 Noroeste 27 Oeste 0 831.2 0.1 59
2019-03-26 03:00:00 -1.8 5 Noroeste 20 Noroeste 0 831.3 0.1 67
2019-03-26 02:00:00 -0.8 14 Sudoeste 31 Sudoeste 0 831.4 -0.1 62
2019-03-26 01:00:00 0 15 Oeste 40 Noroeste 0 831.1 -0.2 60
2019-03-26 00:00:00 0.1 15 Oeste 29 Sudoeste 0 831.2 -0.3 63
2019-03-25 23:00:00 0.4 8 Oeste 27 Oeste 0 831.5 0.3 61
2019-03-25 22:00:00 0.7 8 Noroeste 25 Oeste 0 831.3 0.5 63
2019-03-25 21:00:00 0.9 5 Sur 19 Oeste 0 831.5 0.7 59
2019-03-25 20:00:00 2.2 5 Sur 19 Oeste 0 831.2 0.5 49
2019-03-25 19:00:00 3.9 6 Sudoeste 17 Oeste 0 830.8 -0.3 42
2019-03-25 18:00:00 7.9 9 Oeste 25 Noroeste 0 830.8 -0.2 29
2019-03-25 17:00:00 9.6 12 Noroeste 26 Noroeste 0 830.7 -0.2 23
2019-03-25 16:00:00 10.7 12 Noroeste 30 Noroeste 0 831.1 -0.5 19
2019-03-25 15:00:00 10.3 16 Noroeste 37 Noroeste 0 831 -1 13
2019-03-25 14:00:00 12.2 6 Norte 18 Noroeste 0 830.9 -1.5 21
2019-03-25 13:00:00 11.5 10 Noroeste 22 Noroeste 0 831.6 -1 22
2019-03-25 12:00:00 10.6 13 Noroeste 23 Noroeste 0 832 -0.5 22
2019-03-25 11:00:00 9.3 9 Noroeste 17 Noroeste 0 832.4 0 24
2019-03-25 10:00:00 8.1 4 Sudeste 8 Nordeste 0 832.6 -0.2 33
2019-03-25 09:00:00 3.5 4 Sur 8 Sur 0 832.5 -0.3 48
2019-03-25 08:00:00 2.5 4 Sudeste 14 Sur 0 832.4 -0.7 47
2019-03-25 07:00:00 1.3 4 Sudeste 10 Sudoeste 0 832.8 -0.7 44
2019-03-25 06:00:00 1.2 5 Sudeste 13 Sur 0 832.8 -1.2 52
2019-03-25 05:00:00 2 9 Sur 15 Sudoeste 0 833.1 -1.3 52
2019-03-25 04:00:00 1.3 7 Sudoeste 13 Sudoeste 0 833.5 -1.3 58
2019-03-25 03:00:00 1.3 6 Sur 13 Sudoeste 0 834 -1.1 64
2019-03-25 02:00:00 2.4 8 Sudoeste 15 Sur 0 834.4 -0.9 62
2019-03-25 01:00:00 3.1 8 Sur 15 Sudoeste 0 834.8 -0.6 63
2019-03-25 00:00:00 3.5 8 Sur 15 Sur 0 835.1 0 66